sensor_id;sensor_type;location;lat;lon;timestamp;pressure;altitude;pressure_sealevel;temperature
78859;BMP280;68210;52.032;4.634;2024-02-15T00:00:12;101395.25;;;13.21
78859;BMP280;68210;52.032;4.634;2024-02-15T00:02:12;101389.00;;;13.21
78859;BMP280;68210;52.032;4.634;2024-02-15T00:04:13;101392.94;;;13.23
78859;BMP280;68210;52.032;4.634;2024-02-15T00:06:13;101388.56;;;13.19
78859;BMP280;68210;52.032;4.634;2024-02-15T00:08:13;101391.19;;;13.15
78859;BMP280;68210;52.032;4.634;2024-02-15T00:10:16;101396.75;;;13.19
78859;BMP280;68210;52.032;4.634;2024-02-15T00:12:17;101397.06;;;13.33
78859;BMP280;68210;52.032;4.634;2024-02-15T00:14:17;101383.91;;;13.35
78859;BMP280;68210;52.032;4.634;2024-02-15T00:16:19;101387.31;;;13.32
78859;BMP280;68210;52.032;4.634;2024-02-15T00:18:20;101396.03;;;13.22
78859;BMP280;68210;52.032;4.634;2024-02-15T00:20:23;101390.59;;;13.22
78859;BMP280;68210;52.032;4.634;2024-02-15T00:22:24;101389.88;;;13.25
78859;BMP280;68210;52.032;4.634;2024-02-15T00:24:24;101387.94;;;13.25
78859;BMP280;68210;52.032;4.634;2024-02-15T00:26:25;101386.25;;;13.21
78859;BMP280;68210;52.032;4.634;2024-02-15T00:28:27;101381.38;;;13.11
78859;BMP280;68210;52.032;4.634;2024-02-15T00:30:28;101381.53;;;13.18
78859;BMP280;68210;52.032;4.634;2024-02-15T00:32:29;101382.94;;;13.12
78859;BMP280;68210;52.032;4.634;2024-02-15T00:34:29;101380.59;;;13.10
78859;BMP280;68210;52.032;4.634;2024-02-15T00:36:31;101384.00;;;13.23
78859;BMP280;68210;52.032;4.634;2024-02-15T00:38:34;101381.78;;;13.28
78859;BMP280;68210;52.032;4.634;2024-02-15T00:40:35;101378.53;;;13.23
78859;BMP280;68210;52.032;4.634;2024-02-15T00:42:40;101373.63;;;13.28
78859;BMP280;68210;52.032;4.634;2024-02-15T00:44:40;101386.25;;;13.21
78859;BMP280;68210;52.032;4.634;2024-02-15T00:46:40;101384.00;;;13.23
78859;BMP280;68210;52.032;4.634;2024-02-15T00:48:41;101376.53;;;13.20
78859;BMP280;68210;52.032;4.634;2024-02-15T00:50:42;101370.22;;;13.16
78859;BMP280;68210;52.032;4.634;2024-02-15T00:52:42;101377.41;;;13.08
78859;BMP280;68210;52.032;4.634;2024-02-15T00:54:42;101370.47;;;13.11
78859;BMP280;68210;52.032;4.634;2024-02-15T00:56:43;101364.94;;;13.07
78859;BMP280;68210;52.032;4.634;2024-02-15T00:58:43;101372.94;;;13.16
78859;BMP280;68210;52.032;4.634;2024-02-15T01:00:43;101366.53;;;13.24
78859;BMP280;68210;52.032;4.634;2024-02-15T01:02:44;101371.88;;;13.20
78859;BMP280;68210;52.032;4.634;2024-02-15T01:04:44;101363.38;;;13.06
78859;BMP280;68210;52.032;4.634;2024-02-15T01:06:48;101369.84;;;13.17
78859;BMP280;68210;52.032;4.634;2024-02-15T01:08:49;101377.69;;;13.19
78859;BMP280;68210;52.032;4.634;2024-02-15T01:10:49;101381.91;;;13.16
78859;BMP280;68210;52.032;4.634;2024-02-15T01:12:50;101361.69;;;13.02
78859;BMP280;68210;52.032;4.634;2024-02-15T01:14:51;101365.75;;;13.08
78859;BMP280;68210;52.032;4.634;2024-02-15T01:16:51;101354.16;;;13.11
78859;BMP280;68210;52.032;4.634;2024-02-15T01:18:51;101360.13;;;13.16
78859;BMP280;68210;52.032;4.634;2024-02-15T01:20:52;101366.09;;;13.22
78859;BMP280;68210;52.032;4.634;2024-02-15T01:22:52;101360.13;;;13.16
78859;BMP280;68210;52.032;4.634;2024-02-15T01:24:53;101359.75;;;13.18
78859;BMP280;68210;52.032;4.634;2024-02-15T01:26:53;101358.63;;;13.19
78859;BMP280;68210;52.032;4.634;2024-02-15T01:28:55;101354.47;;;13.25
78859;BMP280;68210;52.032;4.634;2024-02-15T01:30:56;101348.59;;;13.23
78859;BMP280;68210;52.032;4.634;2024-02-15T01:32:57;101353.50;;;13.17
78859;BMP280;68210;52.032;4.634;2024-02-15T01:34:58;101350.28;;;13.12
78859;BMP280;68210;52.032;4.634;2024-02-15T01:36:58;101341.78;;;13.13
78859;BMP280;68210;52.032;4.634;2024-02-15T01:38:58;101348.00;;;13.14
78859;BMP280;68210;52.032;4.634;2024-02-15T01:40:59;101344.81;;;13.12
78859;BMP280;68210;52.032;4.634;2024-02-15T01:42:59;101348.44;;;13.16
78859;BMP280;68210;52.032;4.634;2024-02-15T01:45:02;101349.41;;;13.08
78859;BMP280;68210;52.032;4.634;2024-02-15T01:47:02;101350.91;;;13.06
78859;BMP280;68210;52.032;4.634;2024-02-15T01:49:05;101354.03;;;13.07
78859;BMP280;68210;52.032;4.634;2024-02-15T01:51:07;101347.81;;;13.07
78859;BMP280;68210;52.032;4.634;2024-02-15T01:53:10;101355.13;;;13.18
78859;BMP280;68210;52.032;4.634;2024-02-15T01:55:11;101336.31;;;13.13
78859;BMP280;68210;52.032;4.634;2024-02-15T01:57:12;101338.34;;;13.16
78859;BMP280;68210;52.032;4.634;2024-02-15T01:59:14;101332.00;;;13.12
78859;BMP280;68210;52.032;4.634;2024-02-15T02:01:16;101333.22;;;13.15
78859;BMP280;68210;52.032;4.634;2024-02-15T02:03:16;101325.31;;;13.10
78859;BMP280;68210;52.032;4.634;2024-02-15T02:05:17;101335.53;;;13.13
78859;BMP280;68210;52.032;4.634;2024-02-15T02:07:17;101328.50;;;13.12
78859;BMP280;68210;52.032;4.634;2024-02-15T02:09:19;101331.06;;;13.05
78859;BMP280;68210;52.032;4.634;2024-02-15T02:11:19;101324.66;;;13.13
78859;BMP280;68210;52.032;4.634;2024-02-15T02:13:20;101330.78;;;13.10
78859;BMP280;68210;52.032;4.634;2024-02-15T02:15:20;101324.91;;;13.08
78859;BMP280;68210;52.032;4.634;2024-02-15T02:17:21;101323.50;;;13.14
78859;BMP280;68210;52.032;4.634;2024-02-15T02:19:21;101326.16;;;13.10
78859;BMP280;68210;52.032;4.634;2024-02-15T02:21:23;101323.03;;;13.12
78859;BMP280;68210;52.032;4.634;2024-02-15T02:23:25;101333.66;;;13.17
78859;BMP280;68210;52.032;4.634;2024-02-15T02:25:26;101325.31;;;13.10
78859;BMP280;68210;52.032;4.634;2024-02-15T02:27:26;101319.03;;;13.06
78859;BMP280;68210;52.032;4.634;2024-02-15T02:29:27;101316.75;;;13.08
78859;BMP280;68210;52.032;4.634;2024-02-15T02:31:34;101323.75;;;13.09
78859;BMP280;68210;52.032;4.634;2024-02-15T02:33:35;101316.28;;;13.21
78859;BMP280;68210;52.032;4.634;2024-02-15T02:35:35;101311.63;;;13.22
78859;BMP280;68210;52.032;4.634;2024-02-15T02:37:35;101313.63;;;13.25
78859;BMP280;68210;52.032;4.634;2024-02-15T02:39:36;101311.88;;;13.17
78859;BMP280;68210;52.032;4.634;2024-02-15T02:41:37;101310.84;;;13.21
78859;BMP280;68210;52.032;4.634;2024-02-15T02:43:38;101304.44;;;13.14
78859;BMP280;68210;52.032;4.634;2024-02-15T02:45:41;101304.38;;;13.10
78859;BMP280;68210;52.032;4.634;2024-02-15T02:47:43;101306.00;;;13.15
78859;BMP280;68210;52.032;4.634;2024-02-15T02:49:43;101308.72;;;13.15
78859;BMP280;68210;52.032;4.634;2024-02-15T02:51:43;101312.16;;;13.12
78859;BMP280;68210;52.032;4.634;2024-02-15T02:53:44;101314.16;;;13.15
78859;BMP280;68210;52.032;4.634;2024-02-15T02:55:45;101319.63;;;13.15
78859;BMP280;68210;52.032;4.634;2024-02-15T02:57:45;101309.69;;;13.07
78859;BMP280;68210;52.032;4.634;2024-02-15T02:59:46;101302.88;;;13.13
78859;BMP280;68210;52.032;4.634;2024-02-15T03:01:48;101307.59;;;13.16
78859;BMP280;68210;52.032;4.634;2024-02-15T03:03:48;101296.59;;;13.12
78859;BMP280;68210;52.032;4.634;2024-02-15T03:05:49;101292.25;;;13.08
78859;BMP280;68210;52.032;4.634;2024-02-15T03:07:50;101308.38;;;13.16
78859;BMP280;68210;52.032;4.634;2024-02-15T03:09:51;101313.97;;;13.23
78859;BMP280;68210;52.032;4.634;2024-02-15T03:11:52;101305.75;;;13.20
78859;BMP280;68210;52.032;4.634;2024-02-15T03:13:52;101296.84;;;13.23
78859;BMP280;68210;52.032;4.634;2024-02-15T03:15:53;101303.25;;;13.30
78859;BMP280;68210;52.032;4.634;2024-02-15T03:17:54;101303.31;;;13.34
78859;BMP280;68210;52.032;4.634;2024-02-15T03:19:55;101298.59;;;13.31
78859;BMP280;68210;52.032;4.634;2024-02-15T03:21:55;101302.47;;;13.30
78859;BMP280;68210;52.032;4.634;2024-02-15T03:23:56;101301.44;;;13.19
78859;BMP280;68210;52.032;4.634;2024-02-15T03:25:57;101296.59;;;13.12
78859;BMP280;68210;52.032;4.634;2024-02-15T03:27:58;101298.22;;;13.13
78859;BMP280;68210;52.032;4.634;2024-02-15T03:29:59;101297.50;;;13.16
78859;BMP280;68210;52.032;4.634;2024-02-15T03:32:00;101296.78;;;13.19
78859;BMP280;68210;52.032;4.634;2024-02-15T03:34:00;101295.81;;;13.12
78859;BMP280;68210;52.032;4.634;2024-02-15T03:36:01;101292.84;;;13.17
78859;BMP280;68210;52.032;4.634;2024-02-15T03:38:01;101291.69;;;13.18
78859;BMP280;68210;52.032;4.634;2024-02-15T03:40:02;101302.69;;;13.06
78859;BMP280;68210;52.032;4.634;2024-02-15T03:42:04;101305.59;;;13.13
78859;BMP280;68210;52.032;4.634;2024-02-15T03:44:04;101308.31;;;13.13
78859;BMP280;68210;52.032;4.634;2024-02-15T03:46:04;101296.53;;;13.09
78859;BMP280;68210;52.032;4.634;2024-02-15T03:48:05;101301.81;;;13.02
78859;BMP280;68210;52.032;4.634;2024-02-15T03:50:08;101301.81;;;13.02
78859;BMP280;68210;52.032;4.634;2024-02-15T03:52:12;101297.25;;;13.06
78859;BMP280;68210;52.032;4.634;2024-02-15T03:54:12;101292.59;;;13.06
78859;BMP280;68210;52.032;4.634;2024-02-15T03:56:12;101284.34;;;13.03
78859;BMP280;68210;52.032;4.634;2024-02-15T03:58:13;101288.13;;;12.99
78859;BMP280;68210;52.032;4.634;2024-02-15T04:00:15;101286.75;;;12.89
78859;BMP280;68210;52.032;4.634;2024-02-15T04:02:16;101297.63;;;12.89
78859;BMP280;68210;52.032;4.634;2024-02-15T04:04:16;101288.75;;;12.92
78859;BMP280;68210;52.032;4.634;2024-02-15T04:06:16;101287.88;;;12.88
78859;BMP280;68210;52.032;4.634;2024-02-15T04:08:17;101276.56;;;12.86
78859;BMP280;68210;52.032;4.634;2024-02-15T04:10:19;101274.53;;;12.83
78859;BMP280;68210;52.032;4.634;2024-02-15T04:12:19;101272.31;;;12.74
78859;BMP280;68210;52.032;4.634;2024-02-15T04:14:20;101269.78;;;12.80
78859;BMP280;68210;52.032;4.634;2024-02-15T04:16:20;101267.50;;;12.82
78859;BMP280;68210;52.032;4.634;2024-02-15T04:18:20;101275.22;;;12.80
78859;BMP280;68210;52.032;4.634;2024-02-15T04:20:22;101274.09;;;12.81
78859;BMP280;68210;52.032;4.634;2024-02-15T04:22:22;101274.53;;;12.83
78859;BMP280;68210;52.032;4.634;2024-02-15T04:24:23;101273.13;;;12.89
78859;BMP280;68210;52.032;4.634;2024-02-15T04:26:25;101262.44;;;12.81
78859;BMP280;68210;52.032;4.634;2024-02-15T04:28:27;101267.06;;;12.80
78859;BMP280;68210;52.032;4.634;2024-02-15T04:30:27;101264.78;;;12.82
78859;BMP280;68210;52.032;4.634;2024-02-15T04:32:27;101263.00;;;12.74
78859;BMP280;68210;52.032;4.634;2024-02-15T04:34:29;101261.94;;;12.76
78859;BMP280;68210;52.032;4.634;2024-02-15T04:36:30;101262.97;;;12.86
78859;BMP280;68210;52.032;4.634;2024-02-15T04:38:34;101267.00;;;12.77
78859;BMP280;68210;52.032;4.634;2024-02-15T04:40:36;101263.00;;;12.74
78859;BMP280;68210;52.032;4.634;2024-02-15T04:42:39;101277.88;;;12.77
78859;BMP280;68210;52.032;4.634;2024-02-15T04:44:40;101272.50;;;12.80
78859;BMP280;68210;52.032;4.634;2024-02-15T04:46:40;101272.09;;;12.78
78859;BMP280;68210;52.032;4.634;2024-02-15T04:48:42;101283.41;;;12.80
78859;BMP280;68210;52.032;4.634;2024-02-15T04:50:43;101283.31;;;12.77
78859;BMP280;68210;52.032;4.634;2024-02-15T04:52:43;101294.03;;;12.85
78859;BMP280;68210;52.032;4.634;2024-02-15T04:54:45;101295.09;;;12.81
78859;BMP280;68210;52.032;4.634;2024-02-15T04:56:45;101286.94;;;12.81
78859;BMP280;68210;52.032;4.634;2024-02-15T04:58:46;101291.75;;;12.87
78859;BMP280;68210;52.032;4.634;2024-02-15T05:00:47;101269.97;;;12.87
78859;BMP280;68210;52.032;4.634;2024-02-15T05:02:53;101267.97;;;12.84
78859;BMP280;68210;52.032;4.634;2024-02-15T05:04:53;101240.56;;;12.77
78859;BMP280;68210;52.032;4.634;2024-02-15T05:06:56;101245.75;;;12.82
78859;BMP280;68210;52.032;4.634;2024-02-15T05:08:56;101243.63;;;12.91
78859;BMP280;68210;52.032;4.634;2024-02-15T05:10:57;101226.03;;;13.04
78859;BMP280;68210;52.032;4.634;2024-02-15T05:12:58;101203.03;;;13.02
78859;BMP280;68210;52.032;4.634;2024-02-15T05:15:01;101217.28;;;12.95
78859;BMP280;68210;52.032;4.634;2024-02-15T05:17:02;101224.72;;;12.98
78859;BMP280;68210;52.032;4.634;2024-02-15T05:19:02;101217.34;;;12.99
78859;BMP280;68210;52.032;4.634;2024-02-15T05:21:04;101217.13;;;12.88
78859;BMP280;68210;52.032;4.634;2024-02-15T05:23:05;101224.69;;;12.79
78859;BMP280;68210;52.032;4.634;2024-02-15T05:25:06;101217.81;;;12.85
78859;BMP280;68210;52.032;4.634;2024-02-15T05:27:08;101222.81;;;12.83
78859;BMP280;68210;52.032;4.634;2024-02-15T05:29:10;101222.75;;;12.80
78859;BMP280;68210;52.032;4.634;2024-02-15T05:31:14;101224.88;;;12.86
78859;BMP280;68210;52.032;4.634;2024-02-15T05:33:17;101224.06;;;12.71
78859;BMP280;68210;52.032;4.634;2024-02-15T05:35:18;101212.66;;;12.80
78859;BMP280;68210;52.032;4.634;2024-02-15T05:37:18;101200.91;;;12.76
78859;BMP280;68210;52.032;4.634;2024-02-15T05:39:19;101209.53;;;12.78
78859;BMP280;68210;52.032;4.634;2024-02-15T05:41:22;101207.22;;;12.80
78859;BMP280;68210;52.032;4.634;2024-02-15T05:43:22;101207.59;;;12.79
78859;BMP280;68210;52.032;4.634;2024-02-15T05:47:29;101213.53;;;12.84
78859;BMP280;68210;52.032;4.634;2024-02-15T05:49:30;101213.25;;;12.89
78859;BMP280;68210;52.032;4.634;2024-02-15T05:51:30;101222.16;;;12.86
78859;BMP280;68210;52.032;4.634;2024-02-15T05:53:32;101221.44;;;12.89
78859;BMP280;68210;52.032;4.634;2024-02-15T05:55:38;101216.41;;;12.91
78859;BMP280;68210;52.032;4.634;2024-02-15T05:57:41;101215.00;;;12.97
78859;BMP280;68210;52.032;4.634;2024-02-15T05:59:42;101212.47;;;12.89
78859;BMP280;68210;52.032;4.634;2024-02-15T06:01:42;101199.16;;;12.84
78859;BMP280;68210;52.032;4.634;2024-02-15T06:03:43;101207.81;;;12.89
78859;BMP280;68210;52.032;4.634;2024-02-15T06:05:46;101202.28;;;12.86
78859;BMP280;68210;52.032;4.634;2024-02-15T06:07:46;101203.16;;;12.90
78859;BMP280;68210;52.032;4.634;2024-02-15T06:09:47;101205.09;;;12.89
78859;BMP280;68210;52.032;4.634;2024-02-15T06:11:47;101201.50;;;12.85
78859;BMP280;68210;52.032;4.634;2024-02-15T06:13:48;101208.81;;;12.81
78859;BMP280;68210;52.032;4.634;2024-02-15T06:15:49;101200.78;;;12.88
78859;BMP280;68210;52.032;4.634;2024-02-15T06:17:52;101189.06;;;13.03
78859;BMP280;68210;52.032;4.634;2024-02-15T06:19:54;101190.50;;;12.97
78859;BMP280;68210;52.032;4.634;2024-02-15T06:21:55;101203.50;;;12.88
78859;BMP280;68210;52.032;4.634;2024-02-15T06:23:56;101202.72;;;12.88
78859;BMP280;68210;52.032;4.634;2024-02-15T06:25:57;101198.78;;;12.85
78859;BMP280;68210;52.032;4.634;2024-02-15T06:28:02;101195.06;;;12.93
78859;BMP280;68210;52.032;4.634;2024-02-15T06:30:13;101188.84;;;12.93
78859;BMP280;68210;52.032;4.634;2024-02-15T06:32:32;101187.34;;;12.95
78859;BMP280;68210;52.032;4.634;2024-02-15T06:34:51;101192.06;;;12.98
78859;BMP280;68210;52.032;4.634;2024-02-15T06:37:09;101188.91;;;12.96
78859;BMP280;68210;52.032;4.634;2024-02-15T06:39:28;101198.78;;;12.85
78859;BMP280;68210;52.032;4.634;2024-02-15T06:41:46;101186.41;;;12.88
78859;BMP280;68210;52.032;4.634;2024-02-15T06:43:47;101182.19;;;12.90
78859;BMP280;68210;52.032;4.634;2024-02-15T06:45:47;101192.72;;;12.92
78859;BMP280;68210;52.032;4.634;2024-02-15T06:47:51;101187.34;;;12.95
78859;BMP280;68210;52.032;4.634;2024-02-15T06:49:51;101198.88;;;12.89
78859;BMP280;68210;52.032;4.634;2024-02-15T06:51:54;101213.59;;;12.88
78859;BMP280;68210;52.032;4.634;2024-02-15T06:53:54;101219.31;;;12.83
78859;BMP280;68210;52.032;4.634;2024-02-15T06:55:56;101226.44;;;12.87
78859;BMP280;68210;52.032;4.634;2024-02-15T06:57:56;101226.88;;;12.89
78859;BMP280;68210;52.032;4.634;2024-02-15T06:59:57;101218.78;;;12.93
78859;BMP280;68210;52.032;4.634;2024-02-15T07:02:01;101214.56;;;12.95
78859;BMP280;68210;52.032;4.634;2024-02-15T07:04:01;101181.47;;;12.93
78859;BMP280;68210;52.032;4.634;2024-02-15T07:06:03;101183.47;;;12.96
78859;BMP280;68210;52.032;4.634;2024-02-15T07:08:05;101181.75;;;12.88
78859;BMP280;68210;52.032;4.634;2024-02-15T07:10:07;101199.50;;;12.82
78859;BMP280;68210;52.032;4.634;2024-02-15T07:12:09;101218.19;;;12.84
78859;BMP280;68210;52.032;4.634;2024-02-15T07:14:10;101215.88;;;12.86
78859;BMP280;68210;52.032;4.634;2024-02-15T07:16:10;101223.13;;;12.78
78859;BMP280;68210;52.032;4.634;2024-02-15T07:18:12;101226.63;;;12.79
78859;BMP280;68210;52.032;4.634;2024-02-15T07:20:16;101229.16;;;12.87
78859;BMP280;68210;52.032;4.634;2024-02-15T07:22:17;101237.31;;;12.87
78859;BMP280;68210;52.032;4.634;2024-02-15T07:24:17;101234.94;;;12.86
78859;BMP280;68210;52.032;4.634;2024-02-15T07:26:19;101231.16;;;12.90
78859;BMP280;68210;52.032;4.634;2024-02-15T07:28:20;101233.88;;;12.90
78859;BMP280;68210;52.032;4.634;2024-02-15T07:30:21;101230.13;;;12.79
78859;BMP280;68210;52.032;4.634;2024-02-15T07:32:23;101227.41;;;12.79
78859;BMP280;68210;52.032;4.634;2024-02-15T07:34:23;101220.72;;;12.92
78859;BMP280;68210;52.032;4.634;2024-02-15T07:36:24;101223.88;;;12.94
78859;BMP280;68210;52.032;4.634;2024-02-15T07:38:24;101219.13;;;12.91
78859;BMP280;68210;52.032;4.634;2024-02-15T07:40:25;101221.16;;;12.94
78859;BMP280;68210;52.032;4.634;2024-02-15T07:42:28;101214.06;;;12.90
78859;BMP280;68210;52.032;4.634;2024-02-15T07:44:28;101202.72;;;12.88
78859;BMP280;68210;52.032;4.634;2024-02-15T07:46:30;101208.81;;;12.81
78859;BMP280;68210;52.032;4.634;2024-02-15T07:48:31;101205.56;;;12.76
78859;BMP280;68210;52.032;4.634;2024-02-15T07:50:32;101214.25;;;12.81
78859;BMP280;68210;52.032;4.634;2024-02-15T07:52:32;101206.94;;;12.85
78859;BMP280;68210;52.032;4.634;2024-02-15T07:54:33;101211.34;;;12.90
78859;BMP280;68210;52.032;4.634;2024-02-15T07:56:33;101200.78;;;12.88
78859;BMP280;68210;52.032;4.634;2024-02-15T07:58:38;101193.59;;;12.80
78859;BMP280;68210;52.032;4.634;2024-02-15T08:00:39;101202.59;;;12.81
78859;BMP280;68210;52.032;4.634;2024-02-15T08:02:40;101202.78;;;12.91
78859;BMP280;68210;52.032;4.634;2024-02-15T08:04:43;101209.06;;;12.92
78859;BMP280;68210;52.032;4.634;2024-02-15T08:06:44;101209.94;;;12.80
78859;BMP280;68210;52.032;4.634;2024-02-15T08:08:46;101194.72;;;12.95
78859;BMP280;68210;52.032;4.634;2024-02-15T08:10:47;101194.53;;;13.03
78859;BMP280;68210;52.032;4.634;2024-02-15T08:12:49;101184.19;;;12.93
78859;BMP280;68210;52.032;4.634;2024-02-15T08:14:52;101191.88;;;13.06
78859;BMP280;68210;52.032;4.634;2024-02-15T08:16:52;101182.28;;;13.12
78859;BMP280;68210;52.032;4.634;2024-02-15T08:18:53;101188.88;;;13.11
78859;BMP280;68210;52.032;4.634;2024-02-15T08:20:57;101190.91;;;12.99
78859;BMP280;68210;52.032;4.634;2024-02-15T08:22:57;101201.66;;;12.92
78859;BMP280;68210;52.032;4.634;2024-02-15T08:24:59;101194.34;;;12.96
78859;BMP280;68210;52.032;4.634;2024-02-15T08:27:00;101197.88;;;12.97
78859;BMP280;68210;52.032;4.634;2024-02-15T08:29:01;101201.41;;;12.97
78859;BMP280;68210;52.032;4.634;2024-02-15T08:31:03;101190.41;;;12.94
78859;BMP280;68210;52.032;4.634;2024-02-15T08:33:04;101191.91;;;12.91
78859;BMP280;68210;52.032;4.634;2024-02-15T08:35:06;101196.66;;;12.94
78859;BMP280;68210;52.032;4.634;2024-02-15T08:37:08;101200.50;;;12.93
78859;BMP280;68210;52.032;4.634;2024-02-15T08:39:08;101192.78;;;12.95
78859;BMP280;68210;52.032;4.634;2024-02-15T08:41:12;101198.94;;;12.92
78859;BMP280;68210;52.032;4.634;2024-02-15T08:43:13;101191.22;;;12.94
78859;BMP280;68210;52.032;4.634;2024-02-15T08:45:14;101188.28;;;13.03
78859;BMP280;68210;52.032;4.634;2024-02-15T08:47:15;101184.06;;;13.05
78859;BMP280;68210;52.032;4.634;2024-02-15T08:49:15;101183.13;;;12.98
78859;BMP280;68210;52.032;4.634;2024-02-15T08:51:15;101185.84;;;12.98
78859;BMP280;68210;52.032;4.634;2024-02-15T08:53:16;101187.34;;;12.95
78859;BMP280;68210;52.032;4.634;2024-02-15T08:55:19;101184.41;;;13.04
78859;BMP280;68210;52.032;4.634;2024-02-15T08:57:24;101174.31;;;13.04
78859;BMP280;68210;52.032;4.634;2024-02-15T08:59:24;101173.53;;;13.04
78859;BMP280;68210;52.032;4.634;2024-02-15T09:01:25;101177.47;;;13.06
78859;BMP280;68210;52.032;4.634;2024-02-15T09:03:26;101172.75;;;13.03
78859;BMP280;68210;52.032;4.634;2024-02-15T09:05:27;101173.19;;;13.05
78859;BMP280;68210;52.032;4.634;2024-02-15T09:07:27;101175.53;;;13.06
78859;BMP280;68210;52.032;4.634;2024-02-15T09:09:27;101173.69;;;13.10
78859;BMP280;68210;52.032;4.634;2024-02-15T09:11:29;101162.88;;;13.14
78859;BMP280;68210;52.032;4.634;2024-02-15T09:13:30;101175.69;;;13.13
78859;BMP280;68210;52.032;4.634;2024-02-15T09:15:30;101161.72;;;13.15
78859;BMP280;68210;52.032;4.634;2024-02-15T09:17:31;101159.72;;;13.12
78859;BMP280;68210;52.032;4.634;2024-02-15T09:19:33;101166.75;;;13.13
78859;BMP280;68210;52.032;4.634;2024-02-15T09:21:33;101174.78;;;13.25
78859;BMP280;68210;52.032;4.634;2024-02-15T09:23:33;101173.97;;;13.24
78859;BMP280;68210;52.032;4.634;2024-02-15T09:25:34;101166.09;;;13.19
78859;BMP280;68210;52.032;4.634;2024-02-15T09:27:34;101174.59;;;13.18
78859;BMP280;68210;52.032;4.634;2024-02-15T09:29:35;101163.88;;;13.25
78859;BMP280;68210;52.032;4.634;2024-02-15T09:31:37;101180.66;;;13.27
78859;BMP280;68210;52.032;4.634;2024-02-15T09:33:40;101175.72;;;13.32
78859;BMP280;68210;52.032;4.634;2024-02-15T09:35:40;101178.94;;;13.37
78859;BMP280;68210;52.032;4.634;2024-02-15T09:37:46;101176.44;;;13.29
78859;BMP280;68210;52.032;4.634;2024-02-15T09:39:48;101173.19;;;13.42
78859;BMP280;68210;52.032;4.634;2024-02-15T09:41:49;101180.50;;;13.38
78859;BMP280;68210;52.032;4.634;2024-02-15T09:43:58;101175.78;;;13.36
78859;BMP280;68210;52.032;4.634;2024-02-15T09:45:58;101175.78;;;13.36
78859;BMP280;68210;52.032;4.634;2024-02-15T09:48:03;101176.63;;;13.39
78859;BMP280;68210;52.032;4.634;2024-02-15T09:50:06;101180.34;;;13.50
78859;BMP280;68210;52.032;4.634;2024-02-15T09:52:07;101174.88;;;13.50
78859;BMP280;68210;52.032;4.634;2024-02-15T09:54:18;101176.03;;;13.49
78859;BMP280;68210;52.032;4.634;2024-02-15T09:56:24;101177.09;;;13.45
78859;BMP280;68210;52.032;4.634;2024-02-15T09:58:25;101173.03;;;13.54
78859;BMP280;68210;52.032;4.634;2024-02-15T10:00:26;101144.28;;;13.57
78859;BMP280;68210;52.032;4.634;2024-02-15T10:02:26;101151.22;;;13.73
78859;BMP280;68210;52.032;4.634;2024-02-15T10:04:27;101154.53;;;13.63
78859;BMP280;68210;52.032;4.634;2024-02-15T10:06:29;101161.47;;;13.61
78859;BMP280;68210;52.032;4.634;2024-02-15T10:08:29;101174.28;;;13.79
78859;BMP280;68210;52.032;4.634;2024-02-15T10:10:30;101176.53;;;13.73
78859;BMP280;68210;52.032;4.634;2024-02-15T10:12:39;101179.38;;;13.80
78859;BMP280;68210;52.032;4.634;2024-02-15T10:14:47;101178.22;;;13.81
78859;BMP280;68210;52.032;4.634;2024-02-15T10:16:49;101179.88;;;13.86
78859;BMP280;68210;52.032;4.634;2024-02-15T10:18:50;101189.19;;;13.85
78859;BMP280;68210;52.032;4.634;2024-02-15T10:20:57;101176.16;;;13.75
78859;BMP280;68210;52.032;4.634;2024-02-15T10:25:11;101187.31;;;13.89
78859;BMP280;68210;52.032;4.634;2024-02-15T10:27:12;101189.28;;;13.88
78859;BMP280;68210;52.032;4.634;2024-02-15T10:29:12;101181.16;;;13.92
78859;BMP280;68210;52.032;4.634;2024-02-15T10:31:15;101181.59;;;13.94
78859;BMP280;68210;52.032;4.634;2024-02-15T10:33:33;101193.84;;;14.03
78859;BMP280;68210;52.032;4.634;2024-02-15T10:35:36;101192.47;;;14.12
78859;BMP280;68210;52.032;4.634;2024-02-15T10:37:37;101186.56;;;14.10
78859;BMP280;68210;52.032;4.634;2024-02-15T10:39:42;101186.28;;;14.15
78859;BMP280;68210;52.032;4.634;2024-02-15T10:41:45;101181.97;;;14.14
78859;BMP280;68210;52.032;4.634;2024-02-15T10:43:46;101185.59;;;14.22
78859;BMP280;68210;52.032;4.634;2024-02-15T10:45:48;101176.63;;;14.21
78859;BMP280;68210;52.032;4.634;2024-02-15T10:47:49;101171.28;;;14.28
78859;BMP280;68210;52.032;4.634;2024-02-15T10:49:50;101170.72;;;14.41
78859;BMP280;68210;52.032;4.634;2024-02-15T10:52:03;101179.34;;;14.43
78859;BMP280;68210;52.032;4.634;2024-02-15T10:54:06;101163.66;;;14.37
78859;BMP280;68210;52.032;4.634;2024-02-15T10:56:17;101175.22;;;14.53
78859;BMP280;68210;52.032;4.634;2024-02-15T10:58:20;101169.38;;;14.54
78859;BMP280;68210;52.032;4.634;2024-02-15T11:00:21;101171.25;;;14.76
78859;BMP280;68210;52.032;4.634;2024-02-15T11:02:29;101165.25;;;14.63
78859;BMP280;68210;52.032;4.634;2024-02-15T11:04:31;101159.13;;;14.73
78859;BMP280;68210;52.032;4.634;2024-02-15T11:06:35;101157.69;;;14.79
78859;BMP280;68210;52.032;4.634;2024-02-15T11:08:39;101158.00;;;14.74
78859;BMP280;68210;52.032;4.634;2024-02-15T11:10:40;101151.69;;;14.70
78859;BMP280;68210;52.032;4.634;2024-02-15T11:12:43;101159.28;;;14.84
78859;BMP280;68210;52.032;4.634;2024-02-15T11:14:44;101154.22;;;14.82
78859;BMP280;68210;52.032;4.634;2024-02-15T11:16:44;101162.44;;;14.86
78859;BMP280;68210;52.032;4.634;2024-02-15T11:18:47;101162.81;;;14.84
78859;BMP280;68210;52.032;4.634;2024-02-15T11:20:51;101151.16;;;14.87
78859;BMP280;68210;52.032;4.634;2024-02-15T11:22:57;101148.84;;;14.89
78859;BMP280;68210;52.032;4.634;2024-02-15T11:24:59;101138.78;;;14.93
78859;BMP280;68210;52.032;4.634;2024-02-15T11:27:00;101131.84;;;15.02
78859;BMP280;68210;52.032;4.634;2024-02-15T11:29:04;101135.34;;;14.99
78859;BMP280;68210;52.032;4.634;2024-02-15T11:31:07;101134.09;;;15.22
78859;BMP280;68210;52.032;4.634;2024-02-15T11:33:30;101137.66;;;15.26
78859;BMP280;68210;52.032;4.634;2024-02-15T11:35:30;101128.66;;;15.22